Pride — ZDFD7 — position and weather

sailwx.info

Track history (hours):
 
Tides and Currents Weather Stations Pressure Air Temp Water Temp Dewpoint Dewpoint Depression Visibility Wind Speed Wind Dir Waves Ship Positions

Pride

Last reported at 2017-Mar-21 10:33 UTC. Time now 2017-Mar-24 22:07 UTC.
Position N 38°32' W 010°07'.

Length 88 m; draft 4 m.

Type: Cargo ship. MMSI: 236166000.

Date/timePositionNaut miles runAvg speedWind from/ knotsBaromVisibWave heightAir tempDewpointWater temp
2017-Mar-21 10:33N 38°32' W 010°07'1010.2
2017-Mar-21 09:33N 38°42' W 010°06'1010.2
2017-Mar-21 08:33N 38°52' W 010°05'1010.1
2017-Mar-21 07:33N 39°02' W 010°00'1010.0
2017-Mar-21 06:33N 39°11' W 009°55'1010.0
2017-Mar-21 05:33N 39°20' W 009°50'1110.1
2017-Mar-21 04:29N 39°30' W 009°44'  
2017-Mar-18 15:18N 41°05' W 008°49'5 6.6
2017-Mar-18 14:33N 41°10' W 008°50'7 6.7
2017-Mar-18 13:33N 41°16' W 008°52'  
2017-Mar-16 01:30N 50°39' W 006°29'1010.6
2017-Mar-16 00:33N 50°48' W 006°25'2410.4
2017-Mar-15 22:14N 51°11' W 006°14'17110.0
2017-Mar-15 05:05N 53°60' W 005°24'610.4
2017-Mar-15 04:33N 54°05' W 005°22'10 9.9
2017-Mar-15 03:33N 54°15' W 005°20'9 9.1
2017-Mar-15 02:34N 54°24' W 005°19'9 9.0
2017-Mar-15 01:33N 54°33' W 005°22'9 9.2
2017-Mar-15 00:34N 54°41' W 005°27'10 9.5
2017-Mar-14 23:33N 54°42' W 005°43'8 1.5
2017-Mar-14 18:24N 54°37' W 005°54'0 0.0
2017-Mar-14 17:27N 54°37' W 005°54'0 0.0
2017-Mar-14 16:33N 54°37' W 005°54'0 0.1
2017-Mar-14 14:31N 54°37' W 005°54'7 7.1
2017-Mar-14 13:34N 54°42' W 005°45'3 2.6
2017-Mar-14 12:33N 54°41' W 005°41'0 0.0
2017-Mar-14 11:31N 54°41' W 005°41'0 0.0
2017-Mar-14 10:33N 54°41' W 005°41'0 0.0
2017-Mar-14 09:33N 54°41' W 005°41'0 0.0
2017-Mar-14 08:30N 54°41' W 005°41'0 0.0
2017-Mar-14 07:28N 54°41' W 005°41'0 0.0
2017-Mar-14 06:31N 54°41' W 005°41'0 0.0
2017-Mar-14 05:33N 54°41' W 005°41'0 0.0
2017-Mar-14 04:33N 54°41' W 005°41'0 0.0
2017-Mar-14 03:33N 54°41' W 005°41'0 0.0
2017-Mar-14 02:25N 54°41' W 005°41'0 0.0
2017-Mar-14 01:32N 54°41' W 005°41'0 0.0
2017-Mar-14 00:30N 54°41' W 005°41'0 0.0
2017-Mar-13 23:33N 54°41' W 005°41'0 0.0
2017-Mar-13 22:33N 54°41' W 005°41'0 0.0
2017-Mar-13 21:33N 54°41' W 005°41'0 0.0
2017-Mar-13 20:32N 54°41' W 005°41'0 0.0
2017-Mar-13 19:26N 54°41' W 005°41'0 0.0
2017-Mar-13 18:32N 54°41' W 005°41'0 0.0
2017-Mar-13 17:32N 54°41' W 005°41'0 0.0
2017-Mar-13 16:32N 54°41' W 005°41'0 0.0
2017-Mar-13 15:31N 54°41' W 005°41'0 0.0
2017-Mar-13 14:31N 54°41' W 005°41'0 0.0
2017-Mar-13 13:31N 54°41' W 005°41'0 0.0
2017-Mar-13 12:31N 54°41' W 005°41'0 0.0
2017-Mar-13 11:31N 54°41' W 005°41'0 0.0
2017-Mar-13 10:31N 54°41' W 005°41'0 0.0
2017-Mar-13 09:31N 54°41' W 005°41'0 0.0
2017-Mar-13 08:31N 54°41' W 005°41'0 0.0
2017-Mar-13 07:31N 54°41' W 005°41'0 0.0
2017-Mar-13 06:31N 54°41' W 005°41'0 0.0
2017-Mar-13 05:31N 54°41' W 005°41'0 0.0
2017-Mar-13 04:28N 54°41' W 005°41'0 0.0
2017-Mar-13 03:33N 54°41' W 005°41'0 0.0
2017-Mar-13 02:33N 54°41' W 005°41'0 0.0
2017-Mar-13 01:33N 54°41' W 005°41'0 0.0
2017-Mar-13 00:33N 54°41' W 005°41'0 0.0
2017-Mar-12 23:33N 54°41' W 005°41'0 0.0
2017-Mar-12 22:33N 54°41' W 005°41'0 0.0
2017-Mar-12 21:33N 54°41' W 005°41'0 0.0
2017-Mar-12 20:31N 54°41' W 005°41'0 0.0
2017-Mar-12 19:28N 54°41' W 005°41'0 0.0
2017-Mar-12 18:31N 54°41' W 005°41'0 0.0
2017-Mar-12 17:31N 54°41' W 005°41'0 0.0
2017-Mar-12 16:29N 54°41' W 005°41'0 0.0
2017-Mar-12 15:32N 54°41' W 005°41'0 0.0
2017-Mar-12 14:32N 54°41' W 005°41'0 0.0
2017-Mar-12 13:28N 54°41' W 005°41'0 0.0
2017-Mar-12 12:31N 54°41' W 005°41'0 0.0
2017-Mar-12 11:31N 54°41' W 005°41'0 0.0
2017-Mar-12 10:32N 54°41' W 005°41'0 0.0
2017-Mar-12 09:32N 54°41' W 005°41'0 0.1
2017-Mar-12 08:33N 54°41' W 005°41'0 0.0
2017-Mar-12 07:33N 54°41' W 005°41'0 0.0
2017-Mar-12 06:33N 54°41' W 005°41'0 0.0
2017-Mar-12 05:27N 54°41' W 005°41'0 0.0
2017-Mar-12 04:31N 54°41' W 005°41'0 0.0
2017-Mar-12 03:31N 54°41' W 005°41'0 0.0
2017-Mar-12 02:25N 54°41' W 005°41'0 0.0
2017-Mar-12 01:29N 54°41' W 005°41'0 0.0
2017-Mar-12 00:28N 54°41' W 005°41'0 0.0
2017-Mar-11 23:31N 54°41' W 005°41'0 0.0
2017-Mar-11 22:32N 54°41' W 005°41'0 0.1
2017-Mar-11 21:33N 54°41' W 005°41'0 0.0
2017-Mar-11 20:33N 54°41' W 005°41'0 0.0
2017-Mar-11 19:31N 54°41' W 005°41'0 0.0
2017-Mar-11 18:31N 54°41' W 005°41'0 0.1
2017-Mar-11 17:32N 54°41' W 005°41'0 0.0
2017-Mar-11 16:29N 54°41' W 005°41'0 0.0
2017-Mar-11 15:32N 54°41' W 005°41'0 0.0
2017-Mar-11 14:32N 54°41' W 005°41'0 0.0
2017-Mar-11 13:32N 54°41' W 005°41'0 0.0
2017-Mar-11 12:32N 54°41' W 005°41'0 0.0
2017-Mar-11 11:33N 54°41' W 005°41'  
Track history (hours):
 
Tides and Currents Weather Stations Pressure Air Temp Water Temp Dewpoint Dewpoint Depression Visibility Wind Speed Wind Dir Waves Ship Positions

Pride

Last reported at 2017-Mar-21 10:33 UTC. Time now 2017-Mar-24 22:07 UTC.
Position N 38°32' W 010°07'.

Length 88 m; draft 4 m.

Type: Cargo ship. MMSI: 236166000.

Date/timePositionNaut miles runAvg speedWind from/ knotsBaromVisibWave heightAir tempDewpointWater temp
2017-Mar-21 10:33N 38°32' W 010°07'1010.2
2017-Mar-21 09:33N 38°42' W 010°06'1010.2
2017-Mar-21 08:33N 38°52' W 010°05'1010.1
2017-Mar-21 07:33N 39°02' W 010°00'1010.0
2017-Mar-21 06:33N 39°11' W 009°55'1010.0
2017-Mar-21 05:33N 39°20' W 009°50'1110.1
2017-Mar-21 04:29N 39°30' W 009°44'  
2017-Mar-18 15:18N 41°05' W 008°49'5 6.6
2017-Mar-18 14:33N 41°10' W 008°50'7 6.7
2017-Mar-18 13:33N 41°16' W 008°52'  
2017-Mar-16 01:30N 50°39' W 006°29'1010.6
2017-Mar-16 00:33N 50°48' W 006°25'2410.4
2017-Mar-15 22:14N 51°11' W 006°14'17110.0
2017-Mar-15 05:05N 53°60' W 005°24'610.4
2017-Mar-15 04:33N 54°05' W 005°22'10 9.9
2017-Mar-15 03:33N 54°15' W 005°20'9 9.1
2017-Mar-15 02:34N 54°24' W 005°19'9 9.0
2017-Mar-15 01:33N 54°33' W 005°22'9 9.2
2017-Mar-15 00:34N 54°41' W 005°27'10 9.5
2017-Mar-14 23:33N 54°42' W 005°43'8 1.5
2017-Mar-14 18:24N 54°37' W 005°54'0 0.0
2017-Mar-14 17:27N 54°37' W 005°54'0 0.0
2017-Mar-14 16:33N 54°37' W 005°54'0 0.1
2017-Mar-14 14:31N 54°37' W 005°54'7 7.1
2017-Mar-14 13:34N 54°42' W 005°45'3 2.6
2017-Mar-14 12:33N 54°41' W 005°41'0 0.0
2017-Mar-14 11:31N 54°41' W 005°41'0 0.0
2017-Mar-14 10:33N 54°41' W 005°41'0 0.0
2017-Mar-14 09:33N 54°41' W 005°41'0 0.0
2017-Mar-14 08:30N 54°41' W 005°41'0 0.0
2017-Mar-14 07:28N 54°41' W 005°41'0 0.0
2017-Mar-14 06:31N 54°41' W 005°41'0 0.0
2017-Mar-14 05:33N 54°41' W 005°41'0 0.0
2017-Mar-14 04:33N 54°41' W 005°41'0 0.0
2017-Mar-14 03:33N 54°41' W 005°41'0 0.0
2017-Mar-14 02:25N 54°41' W 005°41'0 0.0
2017-Mar-14 01:32N 54°41' W 005°41'0 0.0
2017-Mar-14 00:30N 54°41' W 005°41'0 0.0
2017-Mar-13 23:33N 54°41' W 005°41'0 0.0
2017-Mar-13 22:33N 54°41' W 005°41'0 0.0
2017-Mar-13 21:33N 54°41' W 005°41'0 0.0
2017-Mar-13 20:32N 54°41' W 005°41'0 0.0
2017-Mar-13 19:26N 54°41' W 005°41'0 0.0
2017-Mar-13 18:32N 54°41' W 005°41'0 0.0
2017-Mar-13 17:32N 54°41' W 005°41'0 0.0
2017-Mar-13 16:32N 54°41' W 005°41'0 0.0
2017-Mar-13 15:31N 54°41' W 005°41'0 0.0
2017-Mar-13 14:31N 54°41' W 005°41'0 0.0
2017-Mar-13 13:31N 54°41' W 005°41'0 0.0
2017-Mar-13 12:31N 54°41' W 005°41'0 0.0
2017-Mar-13 11:31N 54°41' W 005°41'0 0.0
2017-Mar-13 10:31N 54°41' W 005°41'0 0.0
2017-Mar-13 09:31N 54°41' W 005°41'0 0.0
2017-Mar-13 08:31N 54°41' W 005°41'0 0.0
2017-Mar-13 07:31N 54°41' W 005°41'0 0.0
2017-Mar-13 06:31N 54°41' W 005°41'0 0.0
2017-Mar-13 05:31N 54°41' W 005°41'0 0.0
2017-Mar-13 04:28N 54°41' W 005°41'0 0.0
2017-Mar-13 03:33N 54°41' W 005°41'0 0.0
2017-Mar-13 02:33N 54°41' W 005°41'0 0.0
2017-Mar-13 01:33N 54°41' W 005°41'0 0.0
2017-Mar-13 00:33N 54°41' W 005°41'0 0.0
2017-Mar-12 23:33N 54°41' W 005°41'0 0.0
2017-Mar-12 22:33N 54°41' W 005°41'0 0.0
2017-Mar-12 21:33N 54°41' W 005°41'0 0.0
2017-Mar-12 20:31N 54°41' W 005°41'0 0.0
2017-Mar-12 19:28N 54°41' W 005°41'0 0.0
2017-Mar-12 18:31N 54°41' W 005°41'0 0.0
2017-Mar-12 17:31N 54°41' W 005°41'0 0.0
2017-Mar-12 16:29N 54°41' W 005°41'0 0.0
2017-Mar-12 15:32N 54°41' W 005°41'0 0.0
2017-Mar-12 14:32N 54°41' W 005°41'0 0.0
2017-Mar-12 13:28N 54°41' W 005°41'0 0.0
2017-Mar-12 12:31N 54°41' W 005°41'0 0.0
2017-Mar-12 11:31N 54°41' W 005°41'0 0.0
2017-Mar-12 10:32N 54°41' W 005°41'0 0.0
2017-Mar-12 09:32N 54°41' W 005°41'0 0.1
2017-Mar-12 08:33N 54°41' W 005°41'0 0.0
2017-Mar-12 07:33N 54°41' W 005°41'0 0.0
2017-Mar-12 06:33N 54°41' W 005°41'0 0.0
2017-Mar-12 05:27N 54°41' W 005°41'0 0.0
2017-Mar-12 04:31N 54°41' W 005°41'0 0.0
2017-Mar-12 03:31N 54°41' W 005°41'0 0.0
2017-Mar-12 02:25N 54°41' W 005°41'0 0.0
2017-Mar-12 01:29N 54°41' W 005°41'0 0.0
2017-Mar-12 00:28N 54°41' W 005°41'0 0.0
2017-Mar-11 23:31N 54°41' W 005°41'0 0.0
2017-Mar-11 22:32N 54°41' W 005°41'0 0.1
2017-Mar-11 21:33N 54°41' W 005°41'0 0.0
2017-Mar-11 20:33N 54°41' W 005°41'0 0.0
2017-Mar-11 19:31N 54°41' W 005°41'0 0.0
2017-Mar-11 18:31N 54°41' W 005°41'0 0.1
2017-Mar-11 17:32N 54°41' W 005°41'0 0.0
2017-Mar-11 16:29N 54°41' W 005°41'0 0.0
2017-Mar-11 15:32N 54°41' W 005°41'0 0.0
2017-Mar-11 14:32N 54°41' W 005°41'0 0.0
2017-Mar-11 13:32N 54°41' W 005°41'0 0.0
2017-Mar-11 12:32N 54°41' W 005°41'0 0.0
2017-Mar-11 11:33N 54°41' W 005°41'  

Dump ship's entire track history